createdAt,value
2024-03-02T00:01:08.880Z,99722.94
2024-03-02T00:03:36.847Z,99738.13
2024-03-02T00:06:05.058Z,99745.84
2024-03-02T00:08:34.198Z,99755.41
2024-03-02T00:11:04.020Z,99753.22
2024-03-02T00:13:33.204Z,99748.69
2024-03-02T00:16:01.031Z,99776.00
2024-03-02T00:18:32.335Z,99768.09
2024-03-02T00:21:01.343Z,99776.81
2024-03-02T00:23:31.900Z,99783.69
2024-03-02T00:26:02.052Z,99808.06
2024-03-02T00:28:35.038Z,99791.84
2024-03-02T00:31:06.118Z,99797.84
2024-03-02T00:33:37.139Z,99797.66
2024-03-02T00:36:05.998Z,99799.16
2024-03-02T00:38:34.269Z,99807.00
2024-03-02T00:41:08.076Z,99803.13
2024-03-02T00:43:47.548Z,99801.25
2024-03-02T00:46:18.670Z,99814.44
2024-03-02T00:48:57.760Z,99829.16
2024-03-02T00:51:26.422Z,99826.13
2024-03-02T00:53:57.045Z,99819.41
2024-03-02T00:56:27.338Z,99822.75
2024-03-02T00:58:55.421Z,99830.59
2024-03-02T01:01:23.823Z,99825.72
2024-03-02T01:03:52.257Z,99834.88
2024-03-02T01:06:20.341Z,99836.38
2024-03-02T01:08:51.589Z,99845.03
2024-03-02T01:11:20.107Z,99834.00
2024-03-02T01:13:49.228Z,99838.81
2024-03-02T01:16:17.449Z,99827.59
2024-03-02T01:18:45.949Z,99842.78
2024-03-02T01:21:13.948Z,99842.97
2024-03-02T01:23:40.701Z,99846.44
2024-03-02T01:26:08.460Z,99854.97
2024-03-02T01:28:36.225Z,99857.63
2024-03-02T01:31:05.750Z,99845.25
2024-03-02T01:33:33.654Z,99833.38
2024-03-02T01:36:01.513Z,99839.03
2024-03-02T01:38:29.783Z,99830.66
2024-03-02T01:40:58.051Z,99829.97
2024-03-02T01:43:27.237Z,99837.16
2024-03-02T01:45:55.287Z,99830.44
2024-03-02T01:48:24.508Z,99839.13
2024-03-02T01:50:52.587Z,99832.72
2024-03-02T01:53:20.408Z,99827.72
2024-03-02T01:55:48.243Z,99844.56
2024-03-02T01:58:16.275Z,99856.09
2024-03-02T02:00:44.177Z,99868.47
2024-03-02T02:03:11.974Z,99872.28
2024-03-02T02:05:41.147Z,99870.13
2024-03-02T02:08:09.088Z,99877.06
2024-03-02T02:10:37.077Z,99868.84
2024-03-02T02:13:05.484Z,99884.88
2024-03-02T02:15:36.006Z,99882.53
2024-03-02T02:18:04.913Z,99876.03
2024-03-02T02:20:32.766Z,99871.13
2024-03-02T02:23:03.183Z,99867.97
2024-03-02T02:25:31.568Z,99900.53
2024-03-02T02:28:00.184Z,99885.81
2024-03-02T02:30:30.064Z,99877.09
2024-03-02T02:32:59.382Z,99857.97
2024-03-02T02:35:27.385Z,99871.09
2024-03-02T02:37:57.333Z,99881.06
2024-03-02T02:40:26.870Z,99880.94
2024-03-02T02:42:54.741Z,99880.22
2024-03-02T02:45:22.787Z,99866.66
2024-03-02T02:47:51.041Z,99875.59
2024-03-02T02:50:19.498Z,99879.25
2024-03-02T02:52:47.257Z,99877.25
2024-03-02T02:55:16.787Z,99874.56
2024-03-02T02:57:46.762Z,99884.13
2024-03-02T03:00:20.303Z,99870.91
2024-03-02T03:02:51.276Z,99883.44
2024-03-02T03:05:20.475Z,99880.59
2024-03-02T03:07:51.008Z,99888.47
2024-03-02T03:10:19.456Z,99899.31
2024-03-02T03:12:49.183Z,99896.50
2024-03-02T03:15:17.654Z,99902.66
2024-03-02T03:17:47.222Z,99900.00
2024-03-02T03:20:16.657Z,99891.00
2024-03-02T03:22:44.762Z,99888.31
2024-03-02T03:25:12.621Z,99897.19
2024-03-02T03:27:40.479Z,99902.66
2024-03-02T03:30:10.548Z,99892.81
2024-03-02T03:32:38.413Z,99898.03
2024-03-02T03:35:07.407Z,99900.84
2024-03-02T03:37:36.000Z,99903.50
2024-03-02T03:40:08.592Z,99906.19
2024-03-02T03:42:36.440Z,99907.16
2024-03-02T03:45:04.422Z,99917.00
2024-03-02T03:47:35.279Z,99899.78
2024-03-02T03:50:08.160Z,99908.91
2024-03-02T03:52:36.053Z,99907.69
2024-03-02T03:55:04.594Z,99909.53
2024-03-02T03:57:32.561Z,99904.78
2024-03-02T04:00:01.563Z,99919.81
2024-03-02T04:02:29.527Z,99920.69
2024-03-02T04:04:58.565Z,99927.03
2024-03-02T04:07:26.286Z,99936.69
2024-03-02T04:09:53.973Z,99937.72
2024-03-02T04:12:21.790Z,99933.66
2024-03-02T04:14:49.521Z,99927.59
2024-03-02T04:17:17.332Z,99922.88
2024-03-02T04:19:45.166Z,99933.53
2024-03-02T04:22:18.770Z,99932.16
2024-03-02T04:24:54.194Z,99924.16
2024-03-02T04:27:22.121Z,99928.81
2024-03-02T04:29:49.981Z,99939.91
2024-03-02T04:32:17.789Z,99937.59
2024-03-02T04:34:45.634Z,99939.28
2024-03-02T04:37:15.562Z,99939.97
2024-03-02T04:39:43.249Z,99948.66
2024-03-02T04:42:11.093Z,99955.97
2024-03-02T04:44:39.325Z,99950.34
2024-03-02T04:47:07.625Z,99943.94
2024-03-02T04:49:35.610Z,99945.31
2024-03-02T04:52:03.808Z,99946.16
2024-03-02T04:54:33.099Z,99955.69
2024-03-02T04:56:59.915Z,99958.13
2024-03-02T04:59:27.684Z,99956.56
2024-03-02T05:01:55.431Z,99958.84
2024-03-02T05:04:23.144Z,99965.88
2024-03-02T05:06:54.195Z,99957.75
2024-03-02T05:09:22.541Z,99957.88
2024-03-02T05:12:09.282Z,99952.41
2024-03-02T05:14:37.050Z,99965.88
2024-03-02T05:17:05.159Z,99968.44
2024-03-02T05:19:32.888Z,99975.75
2024-03-02T05:22:00.693Z,99977.56
2024-03-02T05:24:29.448Z,99974.38
2024-03-02T05:26:58.594Z,99976.06
2024-03-02T05:29:26.277Z,99976.50
2024-03-02T05:31:53.948Z,99968.25
2024-03-02T05:34:21.698Z,99990.44
2024-03-02T05:36:49.497Z,99976.97
2024-03-02T05:39:17.268Z,99978.81
2024-03-02T05:41:44.959Z,99988.75
2024-03-02T05:44:16.409Z,99994.22
2024-03-02T05:46:44.111Z,99995.78
2024-03-02T05:49:11.773Z,99999.44
2024-03-02T05:51:39.577Z,99987.97
2024-03-02T05:54:07.276Z,100002.41
2024-03-02T05:56:35.049Z,100004.50
2024-03-02T05:59:13.367Z,99999.47
2024-03-02T06:01:42.525Z,100010.28
2024-03-02T06:04:12.127Z,100004.38
2024-03-02T06:06:40.064Z,100017.72
2024-03-02T06:09:09.359Z,100019.84
2024-03-02T06:11:37.491Z,100022.22
2024-03-02T06:14:05.584Z,100006.78
2024-03-02T06:16:33.408Z,100012.69
2024-03-02T06:19:02.922Z,100011.31
2024-03-02T06:21:31.068Z,100016.06
2024-03-02T06:23:58.864Z,100011.84
2024-03-02T06:26:26.600Z,100013.84
2024-03-02T06:28:54.532Z,100011.31
2024-03-02T06:31:22.236Z,100014.94
2024-03-02T06:33:49.459Z,100018.19
2024-03-02T06:36:18.606Z,100017.91
2024-03-02T06:38:46.511Z,100021.81
2024-03-02T06:41:14.172Z,100024.22
2024-03-02T06:43:41.933Z,100036.56
2024-03-02T06:46:10.672Z,100041.19
2024-03-02T06:48:38.666Z,100034.88
2024-03-02T06:51:06.521Z,100037.25
2024-03-02T06:53:35.710Z,100046.09
2024-03-02T06:56:03.612Z,100041.59
2024-03-02T06:58:31.320Z,100043.69
2024-03-02T07:00:59.094Z,100048.75
2024-03-02T07:03:26.877Z,100046.78
2024-03-02T07:05:54.664Z,100043.25
2024-03-02T07:08:22.421Z,100041.97
2024-03-02T07:10:51.558Z,100038.34
2024-03-02T07:13:19.305Z,100040.16
2024-03-02T07:16:07.081Z,100040.84
2024-03-02T07:18:36.148Z,100035.22
2024-03-02T07:21:03.995Z,100034.50
2024-03-02T07:23:32.757Z,100048.94
2024-03-02T07:28:34.628Z,100059.31
2024-03-02T07:31:02.936Z,100053.25
2024-03-02T07:33:34.018Z,100054.13
2024-03-02T07:36:04.982Z,100054.81
2024-03-02T07:38:35.063Z,100072.06
2024-03-02T07:41:05.641Z,100072.50
2024-03-02T07:43:34.241Z,100074.59
2024-03-02T07:46:02.037Z,100074.59
2024-03-02T07:48:29.896Z,100074.72
2024-03-02T07:50:57.636Z,100079.06
2024-03-02T07:53:31.192Z,100083.84
2024-03-02T07:56:03.290Z,100076.53
2024-03-02T07:58:34.700Z,100085.81
2024-03-02T08:01:03.300Z,100078.63
2024-03-02T08:03:33.436Z,100090.56
2024-03-02T08:06:01.324Z,100093.66
2024-03-02T08:08:29.039Z,100094.84
2024-03-02T08:10:58.153Z,100099.84
2024-03-02T08:13:27.236Z,100092.09
2024-03-02T08:15:56.756Z,100085.31
2024-03-02T08:18:24.694Z,100092.91
2024-03-02T08:20:52.735Z,100092.28
2024-03-02T08:23:20.502Z,100093.66
2024-03-02T08:25:48.324Z,100095.03
2024-03-02T08:28:16.001Z,100101.78
2024-03-02T08:30:43.734Z,100084.75
2024-03-02T08:33:12.795Z,100091.63
2024-03-02T08:35:40.641Z,100090.16
2024-03-02T08:38:08.490Z,100089.19
2024-03-02T08:40:36.706Z,100077.44
2024-03-02T08:43:05.105Z,100076.97
2024-03-02T08:45:33.077Z,100069.25
2024-03-02T08:48:00.895Z,100089.56
2024-03-02T08:50:29.994Z,100073.47
2024-03-02T08:52:57.709Z,100085.75
2024-03-02T08:55:25.449Z,100074.53
2024-03-02T08:57:55.820Z,100082.09
2024-03-02T09:00:23.811Z,100070.78
2024-03-02T09:02:51.836Z,100076.34
2024-03-02T09:05:19.634Z,100083.16
2024-03-02T09:07:50.534Z,100083.25
2024-03-02T09:10:18.345Z,100086.81
2024-03-02T09:12:46.098Z,100084.06
2024-03-02T09:15:13.867Z,100098.72
2024-03-02T09:17:41.669Z,100096.91
2024-03-02T09:20:10.221Z,100099.66
2024-03-02T09:22:38.003Z,100106.75
2024-03-02T09:25:09.716Z,100107.38
2024-03-02T09:27:38.841Z,100105.97
2024-03-02T09:30:10.336Z,100107.06
2024-03-02T09:32:38.620Z,100112.97
2024-03-02T09:35:06.795Z,100110.34
2024-03-02T09:37:34.884Z,100117.69
2024-03-02T09:40:02.917Z,100115.81
2024-03-02T09:42:33.414Z,100113.25
2024-03-02T09:45:01.331Z,100117.56
2024-03-02T09:47:29.235Z,100110.44
2024-03-02T09:49:57.594Z,100109.31
2024-03-02T09:52:25.563Z,100111.34
2024-03-02T09:54:53.550Z,100107.69
2024-03-02T09:57:21.432Z,100102.97
2024-03-02T09:59:50.542Z,100109.53
2024-03-02T10:02:18.252Z,100102.03
2024-03-02T10:04:47.825Z,100103.81
2024-03-02T10:07:15.953Z,100109.81
2024-03-02T10:09:48.115Z,100115.13
2024-03-02T10:12:17.424Z,100114.56
2024-03-02T10:14:45.923Z,100097.31
2024-03-02T10:17:19.893Z,100101.72
2024-03-02T10:19:47.586Z,100113.31
2024-03-02T10:22:15.786Z,100097.53
2024-03-02T10:24:46.279Z,100106.09
2024-03-02T10:27:18.450Z,100106.09
2024-03-02T10:29:48.662Z,100106.97
2024-03-02T10:32:18.244Z,100115.69
2024-03-02T10:34:48.288Z,100110.38
2024-03-02T10:37:18.314Z,100117.03
2024-03-02T10:39:48.685Z,100119.06
2024-03-02T10:42:17.366Z,100111.34
2024-03-02T10:44:46.860Z,100112.38
2024-03-02T10:47:15.899Z,100112.00
2024-03-02T10:49:46.544Z,100104.69
2024-03-02T10:52:17.283Z,100105.19
2024-03-02T10:54:48.180Z,100094.63
2024-03-02T10:57:18.987Z,100092.63
2024-03-02T10:59:54.834Z,100086.91
2024-03-02T11:02:27.577Z,100079.53
2024-03-02T11:04:57.447Z,100093.78
2024-03-02T11:07:26.663Z,100091.97
2024-03-02T11:10:00.031Z,100100.16
2024-03-02T11:12:31.746Z,100091.09
2024-03-02T11:15:00.960Z,100091.09
2024-03-02T11:17:29.030Z,100086.06
2024-03-02T11:19:59.329Z,100083.38
2024-03-02T11:22:33.403Z,100088.91
2024-03-02T11:25:01.306Z,100088.94
2024-03-02T11:28:03.352Z,100092.28
2024-03-02T11:30:52.722Z,100086.41
2024-03-02T11:33:29.348Z,100088.59
2024-03-02T11:35:59.350Z,100086.91
2024-03-02T11:38:30.908Z,100086.56
2024-03-02T11:41:03.356Z,100101.00
2024-03-02T11:43:34.233Z,100087.06
2024-03-02T11:46:05.480Z,100072.31
2024-03-02T11:48:33.662Z,100083.19
2024-03-02T11:51:03.227Z,100081.69
2024-03-02T11:53:35.521Z,100086.38
2024-03-02T11:56:04.372Z,100078.84
2024-03-02T11:58:32.367Z,100072.09
2024-03-02T12:01:00.305Z,100069.94
2024-03-02T12:03:31.248Z,100067.56
2024-03-02T12:05:59.059Z,100066.72
2024-03-02T12:08:28.788Z,100075.09
2024-03-02T12:11:01.622Z,100070.09
2024-03-02T12:13:29.984Z,100063.72
2024-03-02T12:15:58.288Z,100063.50
2024-03-02T12:18:26.522Z,100065.56
2024-03-02T12:20:58.436Z,100062.50
2024-03-02T12:23:27.996Z,100066.41
2024-03-02T12:25:56.061Z,100077.09
2024-03-02T12:28:24.144Z,100063.03
2024-03-02T12:30:52.120Z,100065.66
2024-03-02T12:33:20.082Z,100041.69
2024-03-02T12:35:48.019Z,100050.72
2024-03-02T12:38:16.979Z,100048.88
2024-03-02T12:40:46.064Z,100038.06
2024-03-02T12:43:13.819Z,100042.06
2024-03-02T12:45:41.829Z,100036.34
2024-03-02T12:48:09.737Z,100030.66
2024-03-02T12:50:37.604Z,100024.59
2024-03-02T12:53:05.773Z,100030.97
2024-03-02T12:55:33.597Z,100015.03
2024-03-02T12:58:04.245Z,100007.47
2024-03-02T13:00:36.321Z,100010.69
2024-03-02T13:03:04.668Z,100016.91
2024-03-02T13:05:32.924Z,100012.69
2024-03-02T13:08:01.632Z,100006.28
2024-03-02T13:10:29.924Z,100008.09
2024-03-02T13:12:58.637Z,100015.84
2024-03-02T13:15:28.448Z,100019.22
2024-03-02T13:17:56.343Z,100019.22
2024-03-02T13:20:25.619Z,100024.47
2024-03-02T13:22:54.230Z,100018.50
2024-03-02T13:25:22.501Z,100018.13
2024-03-02T13:27:50.580Z,100007.78
2024-03-02T13:30:18.420Z,100023.22
2024-03-02T13:32:47.541Z,100024.53
2024-03-02T13:35:15.466Z,100004.16
2024-03-02T13:37:43.723Z,100005.56
2024-03-02T13:40:15.006Z,100007.22
2024-03-02T13:42:43.013Z,100007.94
2024-03-02T13:45:11.219Z,100007.53
2024-03-02T13:47:38.993Z,100001.78
2024-03-02T13:50:08.801Z,100004.31
2024-03-02T13:52:36.620Z,99994.84
2024-03-02T13:55:04.849Z,100004.00
2024-03-02T13:57:34.812Z,100010.53
2024-03-02T14:00:04.156Z,100004.56
2024-03-02T14:02:31.937Z,100003.28
2024-03-02T14:04:59.906Z,100000.75
2024-03-02T14:07:28.997Z,100003.66
2024-03-02T14:09:56.838Z,99981.81
2024-03-02T14:12:24.582Z,99988.75
2024-03-02T14:14:54.433Z,99986.72
2024-03-02T14:17:22.205Z,99981.59
2024-03-02T14:19:50.133Z,99981.00
2024-03-02T14:22:18.863Z,99982.75
2024-03-02T14:24:48.984Z,99967.88
2024-03-02T14:27:25.698Z,99968.94
2024-03-02T14:30:00.803Z,99961.78
2024-03-02T14:32:28.608Z,99963.41
2024-03-02T14:34:56.612Z,99969.28
2024-03-02T14:37:24.365Z,99960.16
2024-03-02T14:39:53.598Z,99954.69
2024-03-02T14:42:21.337Z,99949.31
2024-03-02T14:44:49.032Z,99953.41
2024-03-02T14:47:17.035Z,99933.88
2024-03-02T14:49:46.120Z,99943.09
2024-03-02T14:52:14.007Z,99939.44
2024-03-02T14:54:43.499Z,99948.72
2024-03-02T14:57:12.710Z,99942.28
2024-03-02T14:59:40.487Z,99932.78
2024-03-02T15:02:11.428Z,99927.97
2024-03-02T15:04:39.145Z,99936.72
2024-03-02T15:07:07.131Z,99959.72
2024-03-02T15:09:36.684Z,99956.19
2024-03-02T15:12:05.431Z,99942.25
2024-03-02T15:14:35.774Z,99963.09
2024-03-02T15:17:03.595Z,99954.84
2024-03-02T15:19:31.354Z,99950.31
2024-03-02T15:21:59.071Z,99954.34
2024-03-02T15:24:26.835Z,99949.66
2024-03-02T15:26:55.464Z,99955.03
2024-03-02T15:29:25.845Z,99962.94
2024-03-02T15:31:54.855Z,99956.41
2024-03-02T15:34:22.603Z,99959.09
2024-03-02T15:36:50.570Z,99953.19
2024-03-02T15:39:19.373Z,99942.13
2024-03-02T15:41:47.383Z,99945.13
2024-03-02T15:44:15.114Z,99948.34
2024-03-02T15:46:49.926Z,99947.28
2024-03-02T15:49:21.611Z,99955.19
2024-03-02T15:51:49.853Z,99955.56
2024-03-02T15:54:17.564Z,99957.13
2024-03-02T15:56:45.985Z,99953.09
2024-03-02T15:59:14.021Z,99952.06
2024-03-02T16:01:43.554Z,99947.41
2024-03-02T16:04:12.814Z,99937.88
2024-03-02T16:06:42.006Z,99933.38
2024-03-02T16:09:11.328Z,99926.63
2024-03-02T16:11:39.239Z,99917.53
2024-03-02T16:14:07.218Z,99911.69
2024-03-02T16:16:36.342Z,99915.88
2024-03-02T16:19:11.117Z,99912.84
2024-03-02T16:21:47.960Z,99912.00
2024-03-02T16:24:15.698Z,99908.09
2024-03-02T16:26:43.508Z,99905.97
2024-03-02T16:29:10.571Z,99910.34
2024-03-02T16:31:38.310Z,99908.88
2024-03-02T16:34:06.105Z,99910.50
2024-03-02T16:36:35.714Z,99911.00
2024-03-02T16:39:06.296Z,99902.56
2024-03-02T16:41:34.208Z,99906.09
2024-03-02T16:44:03.907Z,99894.31
2024-03-02T16:46:32.835Z,99896.66
2024-03-02T16:49:00.704Z,99888.59
2024-03-02T16:51:28.626Z,99898.31
2024-03-02T16:53:56.470Z,99894.16
2024-03-02T16:56:25.540Z,99897.69
2024-03-02T16:58:53.281Z,99896.38
2024-03-02T17:01:21.035Z,99901.59
2024-03-02T17:03:48.924Z,99905.25
2024-03-02T17:06:16.679Z,99903.41
2024-03-02T17:08:44.778Z,99903.09
2024-03-02T17:11:12.613Z,99900.94
2024-03-02T17:13:41.704Z,99905.50
2024-03-02T17:16:09.529Z,99891.50
2024-03-02T17:18:37.282Z,99892.06
2024-03-02T17:21:05.537Z,99887.84
2024-03-02T17:23:33.305Z,99897.63
2024-03-02T17:26:01.021Z,99887.56
2024-03-02T17:28:30.619Z,99896.97
2024-03-02T17:31:01.482Z,99895.19
2024-03-02T17:33:29.276Z,99893.13
2024-03-02T17:35:58.636Z,99892.28
2024-03-02T17:38:26.579Z,99892.16
2024-03-02T17:40:54.283Z,99895.03
2024-03-02T17:43:21.993Z,99896.69
2024-03-02T17:45:49.784Z,99902.56
2024-03-02T17:48:19.495Z,99907.94
2024-03-02T17:50:47.140Z,99910.31
2024-03-02T17:53:14.938Z,99907.63
2024-03-02T17:55:43.013Z,99916.38
2024-03-02T17:58:12.887Z,99919.53
2024-03-02T18:00:42.048Z,99917.03
2024-03-02T18:03:09.956Z,99915.31
2024-03-02T18:05:40.617Z,99924.34
2024-03-02T18:08:09.047Z,99924.88
2024-03-02T18:10:36.828Z,99923.69
2024-03-02T18:13:04.824Z,99916.53
2024-03-02T18:15:32.781Z,99922.50
2024-03-02T18:18:01.044Z,99927.56
2024-03-02T18:20:28.949Z,99925.03
2024-03-02T18:22:59.635Z,99922.03
2024-03-02T18:25:27.398Z,99923.00
2024-03-02T18:27:55.200Z,99920.00
2024-03-02T18:30:24.581Z,99925.22
2024-03-02T18:32:55.358Z,99920.22
2024-03-02T18:35:23.135Z,99911.16
2024-03-02T18:37:50.830Z,99917.31
2024-03-02T18:40:20.093Z,99916.31
2024-03-02T18:42:47.916Z,99914.69
2024-03-02T18:45:17.403Z,99922.91
2024-03-02T18:47:49.184Z,99922.38
2024-03-02T18:50:16.938Z,99921.91
2024-03-02T18:52:47.655Z,99927.75
2024-03-02T18:55:15.684Z,99925.28
2024-03-02T18:57:44.885Z,99930.97
2024-03-02T19:00:14.210Z,99925.13
2024-03-02T19:02:42.973Z,99922.25
2024-03-02T19:05:12.032Z,99925.81
2024-03-02T19:07:44.836Z,99921.09
2024-03-02T19:10:12.626Z,99917.38
2024-03-02T19:12:42.447Z,99917.06
2024-03-02T19:15:15.272Z,99911.00
2024-03-02T19:17:43.457Z,99921.75
2024-03-02T19:20:13.033Z,99923.63
2024-03-02T19:22:41.051Z,99913.50
2024-03-02T19:25:12.451Z,99911.72
2024-03-02T19:27:40.285Z,99913.69
2024-03-02T19:30:09.439Z,99897.47
2024-03-02T19:32:38.578Z,99915.41
2024-03-02T19:35:07.848Z,99913.75
2024-03-02T19:37:37.186Z,99905.22
2024-03-02T19:40:08.879Z,99913.56
2024-03-02T19:42:36.916Z,99918.28
2024-03-02T19:45:06.407Z,99909.03
2024-03-02T19:47:34.422Z,99909.53
2024-03-02T19:50:05.395Z,99915.72
2024-03-02T19:52:35.161Z,99914.56
2024-03-02T19:55:04.084Z,99915.09
2024-03-02T19:57:32.306Z,99907.03
2024-03-02T20:00:00.045Z,99894.47
2024-03-02T20:02:28.842Z,99903.66
2024-03-02T20:04:57.057Z,99894.09
2024-03-02T20:07:26.097Z,99892.78
2024-03-02T20:09:54.378Z,99890.78
2024-03-02T20:12:22.313Z,99887.41
2024-03-02T20:14:50.257Z,99887.28
2024-03-02T20:17:18.088Z,99873.34
2024-03-02T20:19:46.232Z,99878.38
2024-03-02T20:22:14.262Z,99878.53
2024-03-02T20:24:43.863Z,99883.06
2024-03-02T20:27:12.130Z,99881.53
2024-03-02T20:29:39.814Z,99873.50
2024-03-02T20:32:08.544Z,99883.59
2024-03-02T20:34:36.381Z,99885.06
2024-03-02T20:40:00.204Z,99880.06
2024-03-02T20:42:31.235Z,99878.94
2024-03-02T20:45:00.056Z,99888.28
2024-03-02T20:47:27.776Z,99889.16
2024-03-02T20:49:55.532Z,99887.00
2024-03-02T20:52:23.290Z,99890.88
2024-03-02T20:54:51.077Z,99892.72
2024-03-02T20:57:20.361Z,99878.47
2024-03-02T20:59:48.916Z,99883.63
2024-03-02T21:02:17.612Z,99889.34
2024-03-02T21:04:48.734Z,99884.31
2024-03-02T21:07:19.698Z,99883.63
2024-03-02T21:09:47.538Z,99876.63
2024-03-02T21:12:15.276Z,99893.34
2024-03-02T21:14:45.986Z,99887.31
2024-03-02T21:17:13.749Z,99876.25
2024-03-02T21:19:41.502Z,99880.28
2024-03-02T21:22:09.243Z,99890.50
2024-03-02T21:24:38.257Z,99890.53
2024-03-02T21:27:07.845Z,99892.88
2024-03-02T21:29:35.555Z,99893.88
2024-03-02T21:32:05.028Z,99886.84
2024-03-02T21:34:32.715Z,99891.22
2024-03-02T21:37:00.502Z,99889.22
2024-03-02T21:39:35.853Z,99891.72
2024-03-02T21:42:08.024Z,99887.38
2024-03-02T21:44:35.722Z,99897.44
2024-03-02T21:47:07.404Z,99902.28
2024-03-02T21:49:35.559Z,99896.94
2024-03-02T21:52:05.058Z,99889.88
2024-03-02T21:54:32.856Z,99899.63
2024-03-02T21:57:03.479Z,99897.59
2024-03-02T21:59:31.539Z,99901.13
2024-03-02T22:01:59.367Z,99904.47
2024-03-02T22:04:28.873Z,99903.97
2024-03-02T22:06:56.659Z,99901.28
2024-03-02T22:09:24.370Z,99896.78
2024-03-02T22:11:52.043Z,99899.63
2024-03-02T22:14:20.495Z,99895.56
2024-03-02T22:16:48.298Z,99904.13
2024-03-02T22:19:16.057Z,99904.47
2024-03-02T22:21:47.517Z,99889.53
2024-03-02T22:24:15.550Z,99893.19
2024-03-02T22:26:43.407Z,99903.78
2024-03-02T22:29:11.165Z,99895.94
2024-03-02T22:31:38.851Z,99901.63
2024-03-02T22:34:06.656Z,99908.97
2024-03-02T22:36:34.433Z,99895.19
2024-03-02T22:39:03.871Z,99900.75
2024-03-02T22:41:31.610Z,99907.28
2024-03-02T22:43:59.401Z,99908.78
2024-03-02T22:46:27.118Z,99910.78
2024-03-02T22:48:55.668Z,99908.25
2024-03-02T22:51:24.548Z,99902.38
2024-03-02T22:53:52.776Z,99906.44
2024-03-02T22:56:21.931Z,99898.69
2024-03-02T22:58:49.686Z,99900.72
2024-03-02T23:01:21.316Z,99903.72
2024-03-02T23:03:53.879Z,99908.91
2024-03-02T23:06:21.602Z,99901.66
2024-03-02T23:08:49.313Z,99906.53
2024-03-02T23:11:17.843Z,99918.56
2024-03-02T23:13:50.547Z,99906.63
2024-03-02T23:16:18.472Z,99917.06
2024-03-02T23:18:46.300Z,99907.69
2024-03-02T23:21:14.194Z,99904.75
2024-03-02T23:23:41.905Z,99915.97
2024-03-02T23:26:09.671Z,99908.09
2024-03-02T23:28:37.361Z,99908.09
2024-03-02T23:31:06.818Z,99908.44
2024-03-02T23:33:34.641Z,99905.75
2024-03-02T23:36:02.386Z,99900.88
2024-03-02T23:38:30.114Z,99907.06
2024-03-02T23:41:08.921Z,99884.44
2024-03-02T23:43:37.194Z,99898.50
2024-03-02T23:46:07.710Z,99902.69
2024-03-02T23:48:35.777Z,99902.97
2024-03-02T23:51:04.130Z,99899.09
2024-03-02T23:53:32.337Z,99898.41
2024-03-02T23:56:10.043Z,99893.81
2024-03-02T23:58:37.795Z,99878.13
